createdAt,value
2023-04-29T00:01:35.069Z,0.20
2023-04-29T00:04:25.094Z,0.20
2023-04-29T00:07:16.447Z,0.20
2023-04-29T00:10:09.204Z,0.20
2023-04-29T00:12:58.714Z,0.10
2023-04-29T00:15:48.364Z,0.10
2023-04-29T00:18:38.332Z,0.10
2023-04-29T00:21:28.492Z,0.10
2023-04-29T00:24:18.447Z,0.10
2023-04-29T00:27:09.444Z,0.10
2023-04-29T00:29:59.701Z,0.10
2023-04-29T00:32:50.235Z,0.10
2023-04-29T00:35:40.050Z,0.10
2023-04-29T00:38:29.989Z,0.10
2023-04-29T00:41:20.730Z,0.10
2023-04-29T00:44:12.030Z,0.10
2023-04-29T00:47:01.808Z,0.10
2023-04-29T00:49:51.689Z,0.10
2023-04-29T00:52:41.865Z,0.10
2023-04-29T00:55:33.224Z,0.10
2023-04-29T00:58:23.749Z,0.10
2023-04-29T01:01:15.315Z,0.00
2023-04-29T01:04:07.090Z,0.00
2023-04-29T01:07:06.701Z,0.00
2023-04-29T01:10:05.131Z,0.00
2023-04-29T01:13:03.005Z,-0.10
2023-04-29T01:16:02.965Z,-0.10
2023-04-29T01:18:59.975Z,-0.10
2023-04-29T01:21:50.429Z,-0.10
2023-04-29T01:24:41.866Z,-0.10
2023-04-29T01:27:34.473Z,-0.10
2023-04-29T01:30:33.463Z,-0.10
2023-04-29T01:33:31.648Z,-0.10
2023-04-29T01:36:31.035Z,-0.10
2023-04-29T01:39:29.661Z,-0.20
2023-04-29T01:42:27.891Z,-0.20
2023-04-29T01:45:19.804Z,-0.20
2023-04-29T01:48:10.029Z,-0.30
2023-04-29T01:50:59.943Z,-0.30
2023-04-29T01:53:49.758Z,-0.30
2023-04-29T01:56:39.390Z,-0.40
2023-04-29T01:59:31.453Z,-0.40
2023-04-29T02:02:24.432Z,-0.40
2023-04-29T02:05:13.954Z,-0.40
2023-04-29T02:08:04.050Z,-0.40
2023-04-29T02:13:30.969Z,-0.30
2023-04-29T02:16:22.188Z,-0.30
2023-04-29T02:19:11.861Z,-0.20
2023-04-29T02:22:01.485Z,-0.20
2023-04-29T02:24:51.085Z,-0.10
2023-04-29T02:27:40.706Z,-0.10
2023-04-29T02:30:30.938Z,-0.20
2023-04-29T02:33:22.056Z,-0.30
2023-04-29T02:36:11.748Z,-0.30
2023-04-29T02:39:01.768Z,-0.30
2023-04-29T02:41:51.312Z,-0.30
2023-04-29T02:44:41.910Z,-0.30
2023-04-29T02:47:31.873Z,-0.30
2023-04-29T02:50:23.257Z,-0.20
2023-04-29T02:53:13.001Z,-0.20
2023-04-29T02:56:02.557Z,-0.20
2023-04-29T02:58:52.428Z,-0.20
2023-04-29T03:01:41.856Z,-0.20
2023-04-29T03:04:31.818Z,-0.10
2023-04-29T03:07:23.093Z,-0.10
2023-04-29T03:10:13.719Z,-0.10
2023-04-29T03:13:03.180Z,0.00
2023-04-29T03:15:52.722Z,0.00
2023-04-29T03:18:42.500Z,0.10
2023-04-29T03:21:31.967Z,0.20
2023-04-29T03:24:23.325Z,0.30
2023-04-29T03:27:12.849Z,0.40
2023-04-29T03:30:02.726Z,0.40
2023-04-29T03:32:52.249Z,0.50
2023-04-29T03:35:41.684Z,0.60
2023-04-29T03:38:31.225Z,0.70
2023-04-29T03:41:23.528Z,0.80
2023-04-29T03:44:12.849Z,0.90
2023-04-29T03:47:02.325Z,1.00
2023-04-29T03:49:52.076Z,1.10
2023-04-29T03:52:41.773Z,1.40
2023-04-29T03:55:31.752Z,1.60
2023-04-29T03:58:24.321Z,1.80
2023-04-29T04:01:13.745Z,2.10
2023-04-29T04:04:03.713Z,2.30
2023-04-29T04:06:53.273Z,2.50
2023-04-29T04:09:43.344Z,2.70
2023-04-29T04:12:33.097Z,2.70
2023-04-29T04:15:24.718Z,2.90
2023-04-29T04:18:14.534Z,3.20
2023-04-29T04:21:08.261Z,3.50
2023-04-29T04:23:57.821Z,3.70
2023-04-29T04:26:47.511Z,3.90
2023-04-29T04:29:36.923Z,4.00
2023-04-29T04:32:28.530Z,4.10
2023-04-29T04:35:18.343Z,4.10
2023-04-29T04:38:08.585Z,4.20
2023-04-29T04:40:58.088Z,4.20
2023-04-29T04:43:48.071Z,4.40
2023-04-29T04:46:37.946Z,4.50
2023-04-29T04:49:29.652Z,4.70
2023-04-29T04:52:26.156Z,4.80
2023-04-29T04:55:16.467Z,5.10
2023-04-29T04:58:06.050Z,5.30
2023-04-29T05:00:56.125Z,5.40
2023-04-29T05:03:46.041Z,5.60
2023-04-29T05:06:37.924Z,5.80
2023-04-29T05:09:27.555Z,6.00
2023-04-29T05:12:17.286Z,6.30
2023-04-29T05:15:08.750Z,6.60
2023-04-29T05:17:58.252Z,6.70
2023-04-29T05:20:47.870Z,6.90
2023-04-29T05:23:38.873Z,7.10
2023-04-29T05:26:28.325Z,7.40
2023-04-29T05:29:18.182Z,7.60
2023-04-29T05:32:08.034Z,7.80
2023-04-29T05:34:57.574Z,8.10
2023-04-29T05:37:47.102Z,8.30
2023-04-29T05:40:38.627Z,8.50
2023-04-29T05:43:28.140Z,8.60
2023-04-29T05:46:18.409Z,8.70
2023-04-29T05:49:08.041Z,8.90
2023-04-29T05:51:57.660Z,9.10
2023-04-29T05:54:47.199Z,9.20
2023-04-29T05:57:38.327Z,9.30
2023-04-29T06:00:28.150Z,9.40
2023-04-29T06:03:18.721Z,9.60
2023-04-29T06:06:08.575Z,9.70
2023-04-29T06:08:58.064Z,10.00
2023-04-29T06:11:49.483Z,10.10
2023-04-29T06:14:40.726Z,10.30
2023-04-29T06:17:30.414Z,10.50
2023-04-29T06:20:20.100Z,10.80
2023-04-29T06:23:09.637Z,11.00
2023-04-29T06:25:59.398Z,11.20
2023-04-29T06:28:49.067Z,11.30
2023-04-29T06:31:40.358Z,11.30
2023-04-29T06:34:30.100Z,11.30
2023-04-29T06:37:19.818Z,11.40
2023-04-29T06:40:10.621Z,11.30
2023-04-29T06:42:59.865Z,11.50
2023-04-29T06:45:49.508Z,11.70
2023-04-29T06:48:40.504Z,11.90
2023-04-29T06:51:30.265Z,12.10
2023-04-29T06:54:20.226Z,12.00
2023-04-29T06:57:09.909Z,12.20
2023-04-29T06:59:59.462Z,12.40
2023-04-29T07:02:49.267Z,12.50
2023-04-29T07:05:42.175Z,12.50
2023-04-29T07:08:35.127Z,12.60
2023-04-29T07:11:25.132Z,12.80
2023-04-29T07:14:14.851Z,12.90
2023-04-29T07:17:04.561Z,12.80
2023-04-29T07:19:54.840Z,12.70
2023-04-29T07:22:46.316Z,12.90
2023-04-29T07:25:37.088Z,13.10
2023-04-29T07:28:27.073Z,13.30
2023-04-29T07:31:16.917Z,13.60
2023-04-29T07:34:06.553Z,13.90
2023-04-29T07:36:56.658Z,14.20
2023-04-29T07:39:48.510Z,14.20
2023-04-29T07:42:38.091Z,14.40
2023-04-29T07:45:27.647Z,14.60
2023-04-29T07:48:17.423Z,14.80
2023-04-29T07:51:07.282Z,15.00
2023-04-29T07:53:56.827Z,15.00
2023-04-29T07:56:47.813Z,14.70
2023-04-29T07:59:37.259Z,14.70
2023-04-29T08:02:27.161Z,14.70
2023-04-29T08:05:17.285Z,14.60
2023-04-29T08:08:07.765Z,14.70
2023-04-29T08:10:57.508Z,14.90
2023-04-29T08:13:48.940Z,14.70
2023-04-29T08:16:42.022Z,14.70
2023-04-29T08:19:31.868Z,14.80
2023-04-29T08:22:23.156Z,14.90
2023-04-29T08:25:13.922Z,14.90
2023-04-29T08:28:03.555Z,14.70
2023-04-29T08:30:54.586Z,15.00
2023-04-29T08:33:44.225Z,15.00
2023-04-29T08:36:34.596Z,15.10
2023-04-29T08:39:24.143Z,15.00
2023-04-29T08:42:14.129Z,15.30
2023-04-29T08:45:04.306Z,15.50
2023-04-29T08:47:58.684Z,15.40
2023-04-29T08:50:48.683Z,15.60
2023-04-29T08:53:38.410Z,15.40
2023-04-29T08:56:29.345Z,15.60
2023-04-29T08:59:20.825Z,16.00
2023-04-29T09:02:15.450Z,16.10
2023-04-29T09:05:11.662Z,16.20
2023-04-29T09:08:03.655Z,16.20
2023-04-29T09:10:53.841Z,16.20
2023-04-29T09:13:43.653Z,16.40
2023-04-29T09:16:33.401Z,16.40
2023-04-29T09:19:34.024Z,16.60
2023-04-29T09:22:25.475Z,16.60
2023-04-29T09:25:15.547Z,16.40
2023-04-29T09:28:18.198Z,16.60
2023-04-29T09:31:09.137Z,17.10
2023-04-29T09:33:59.965Z,16.90
2023-04-29T09:36:51.135Z,16.40
2023-04-29T09:39:42.489Z,16.70
2023-04-29T09:42:32.687Z,16.70
2023-04-29T09:45:38.805Z,16.80
2023-04-29T09:48:34.773Z,16.80
2023-04-29T09:51:24.526Z,17.00
2023-04-29T09:54:23.593Z,16.80
2023-04-29T09:57:16.270Z,17.10
2023-04-29T10:00:06.104Z,16.60
2023-04-29T10:03:00.577Z,16.60
2023-04-29T10:05:50.473Z,16.80
2023-04-29T10:08:42.372Z,16.70
2023-04-29T10:11:32.363Z,16.90
2023-04-29T10:14:25.194Z,16.60
2023-04-29T10:17:26.940Z,16.70
2023-04-29T10:20:23.291Z,16.50
2023-04-29T10:23:15.274Z,16.80
2023-04-29T10:26:05.328Z,16.80
2023-04-29T10:28:57.660Z,17.20
2023-04-29T10:31:50.541Z,17.60
2023-04-29T10:34:40.923Z,17.40
2023-04-29T10:37:32.063Z,17.90
2023-04-29T10:40:26.828Z,18.20
2023-04-29T10:43:17.761Z,18.30
2023-04-29T10:46:27.266Z,17.90
2023-04-29T10:49:18.480Z,17.70
2023-04-29T10:52:08.227Z,17.80
2023-04-29T10:55:05.755Z,17.60
2023-04-29T10:57:56.977Z,17.60
2023-04-29T11:00:46.391Z,17.50
2023-04-29T11:03:59.143Z,18.10
2023-04-29T11:06:54.481Z,17.60
2023-04-29T11:09:44.125Z,17.90
2023-04-29T11:12:33.739Z,18.10
2023-04-29T11:15:23.358Z,18.40
2023-04-29T11:18:15.850Z,18.50
2023-04-29T11:21:15.586Z,18.20
2023-04-29T11:24:07.995Z,17.60
2023-04-29T11:27:04.794Z,17.60
2023-04-29T11:29:59.051Z,17.40
2023-04-29T11:32:50.858Z,17.60
2023-04-29T11:35:42.151Z,17.10
2023-04-29T11:38:33.008Z,17.10
2023-04-29T11:41:24.988Z,17.20
2023-04-29T11:44:15.178Z,17.40
2023-04-29T11:47:05.470Z,17.60
2023-04-29T11:49:55.249Z,17.80
2023-04-29T11:52:45.170Z,17.80
2023-04-29T11:55:34.891Z,17.50
2023-04-29T11:58:27.689Z,17.80
2023-04-29T12:01:17.396Z,17.90
2023-04-29T12:04:07.848Z,17.90
2023-04-29T12:07:00.393Z,17.70
2023-04-29T12:09:50.046Z,17.70
2023-04-29T12:12:41.216Z,17.60
2023-04-29T12:15:33.276Z,17.70
2023-04-29T12:18:28.880Z,17.70
2023-04-29T12:21:19.049Z,17.80
2023-04-29T12:24:08.833Z,17.90
2023-04-29T12:27:02.795Z,18.00
2023-04-29T12:29:54.466Z,18.30
2023-04-29T12:32:49.383Z,18.10
2023-04-29T12:35:39.863Z,18.00
2023-04-29T12:38:30.393Z,18.30
2023-04-29T12:41:22.106Z,18.40
2023-04-29T12:44:12.390Z,18.50
2023-04-29T12:47:11.162Z,18.30
2023-04-29T12:50:03.644Z,18.50
2023-04-29T12:52:53.273Z,18.50
2023-04-29T12:55:43.118Z,18.30
2023-04-29T12:58:33.285Z,18.30
2023-04-29T13:01:23.902Z,18.20
2023-04-29T13:04:13.692Z,18.70
2023-04-29T13:07:05.171Z,18.80
2023-04-29T13:09:55.652Z,19.10
2023-04-29T13:12:45.054Z,18.90
2023-04-29T13:15:35.045Z,19.60
2023-04-29T13:18:24.711Z,21.00
2023-04-29T13:21:14.230Z,21.80
2023-04-29T13:24:05.629Z,23.00
2023-04-29T13:26:55.056Z,23.80
2023-04-29T13:29:45.104Z,23.80
2023-04-29T13:32:43.961Z,24.50
2023-04-29T13:35:40.584Z,25.10
2023-04-29T13:38:30.630Z,25.50
2023-04-29T13:41:21.725Z,25.80
2023-04-29T13:44:23.594Z,25.90
2023-04-29T13:47:25.207Z,26.60
2023-04-29T13:50:40.169Z,25.60
2023-04-29T13:54:00.858Z,25.40
2023-04-29T13:59:51.720Z,27.40
2023-04-29T14:02:42.712Z,26.00
2023-04-29T14:05:32.403Z,26.50
2023-04-29T14:08:22.226Z,25.30
2023-04-29T14:11:11.970Z,22.90
2023-04-29T14:14:03.054Z,21.10
2023-04-29T14:16:52.690Z,20.30
2023-04-29T14:19:42.284Z,19.60
2023-04-29T14:22:32.024Z,19.10
2023-04-29T14:25:21.386Z,18.60
2023-04-29T14:28:11.891Z,18.30
2023-04-29T14:31:03.085Z,18.10
2023-04-29T14:33:53.974Z,18.00
2023-04-29T14:36:45.428Z,17.80
2023-04-29T14:39:37.252Z,17.80
2023-04-29T14:42:27.010Z,17.80
2023-04-29T14:45:17.596Z,18.10
2023-04-29T14:48:08.682Z,17.80
2023-04-29T14:50:58.314Z,17.50
2023-04-29T14:53:47.870Z,17.40
2023-04-29T14:56:38.556Z,17.10
2023-04-29T14:59:30.423Z,17.30
2023-04-29T15:02:20.554Z,17.20
2023-04-29T15:05:11.934Z,17.30
2023-04-29T15:08:02.705Z,17.30
2023-04-29T15:10:52.426Z,17.20
2023-04-29T15:13:44.534Z,17.30
2023-04-29T15:16:34.169Z,17.50
2023-04-29T15:19:30.632Z,17.70
2023-04-29T15:22:21.773Z,17.60
2023-04-29T15:25:11.872Z,17.50
2023-04-29T15:28:01.853Z,17.30
2023-04-29T15:30:51.214Z,17.40
2023-04-29T15:33:41.235Z,17.30
2023-04-29T15:36:32.520Z,17.30
2023-04-29T15:39:24.057Z,17.20
2023-04-29T15:42:13.721Z,17.30
2023-04-29T15:45:03.971Z,17.10
2023-04-29T15:47:53.586Z,17.20
2023-04-29T15:50:43.274Z,17.30
2023-04-29T15:53:32.956Z,17.40
2023-04-29T15:56:24.227Z,17.20
2023-04-29T15:59:14.446Z,17.10
2023-04-29T16:02:10.701Z,17.00
2023-04-29T16:05:00.755Z,17.00
2023-04-29T16:07:50.417Z,16.90
2023-04-29T16:10:40.036Z,16.90
2023-04-29T16:13:31.248Z,16.90
2023-04-29T16:16:20.810Z,16.90
2023-04-29T16:19:10.590Z,16.70
2023-04-29T16:22:00.513Z,16.50
2023-04-29T16:24:50.615Z,16.20
2023-04-29T16:27:40.333Z,15.90
2023-04-29T16:30:31.107Z,15.80
2023-04-29T16:33:20.871Z,15.60
2023-04-29T16:36:10.469Z,15.40
2023-04-29T16:39:00.510Z,15.20
2023-04-29T16:41:50.436Z,15.10
2023-04-29T16:44:39.945Z,15.00
2023-04-29T16:47:31.254Z,14.90
2023-04-29T16:50:21.352Z,14.90
2023-04-29T16:53:10.780Z,14.90
2023-04-29T16:56:00.450Z,14.90
2023-04-29T16:58:50.588Z,14.80
2023-04-29T17:01:40.623Z,14.90
2023-04-29T17:04:32.564Z,14.90
2023-04-29T17:07:22.411Z,14.80
2023-04-29T17:10:12.675Z,14.70
2023-04-29T17:13:02.477Z,14.60
2023-04-29T17:15:52.177Z,14.50
2023-04-29T17:18:42.353Z,14.40
2023-04-29T17:21:33.936Z,14.20
2023-04-29T17:24:25.130Z,14.00
2023-04-29T17:27:31.445Z,13.80
2023-04-29T17:30:21.380Z,13.60
2023-04-29T17:33:13.485Z,13.40
2023-04-29T17:36:04.264Z,13.10
2023-04-29T17:38:57.389Z,12.90
2023-04-29T17:41:47.967Z,12.70
2023-04-29T17:44:38.486Z,12.50
2023-04-29T17:47:28.567Z,12.30
2023-04-29T17:50:19.075Z,12.10
2023-04-29T17:53:09.552Z,11.90
2023-04-29T17:56:01.136Z,11.80
2023-04-29T17:58:51.149Z,11.60
2023-04-29T18:01:40.724Z,11.50
2023-04-29T18:04:31.025Z,11.30
2023-04-29T18:07:20.866Z,11.20
2023-04-29T18:10:12.150Z,11.10
2023-04-29T18:13:03.736Z,11.00
2023-04-29T18:15:53.609Z,10.90
2023-04-29T18:18:43.609Z,10.80
2023-04-29T18:21:34.227Z,10.70
2023-04-29T18:24:24.016Z,10.60
2023-04-29T18:27:13.855Z,10.50
2023-04-29T18:30:05.991Z,10.40
2023-04-29T18:32:55.534Z,10.30
2023-04-29T18:35:46.487Z,10.20
2023-04-29T18:38:36.290Z,10.20
2023-04-29T18:41:25.864Z,10.10
2023-04-29T18:44:16.504Z,10.00
2023-04-29T18:47:07.952Z,10.00
2023-04-29T18:49:58.801Z,9.80
2023-04-29T18:52:48.467Z,9.80
2023-04-29T18:55:38.614Z,9.70
2023-04-29T18:58:28.973Z,9.60
2023-04-29T19:01:19.156Z,9.60
2023-04-29T19:04:10.986Z,9.50
2023-04-29T19:07:02.986Z,9.50
2023-04-29T19:09:53.028Z,9.50
2023-04-29T19:12:43.380Z,9.60
2023-04-29T19:15:34.178Z,9.50
2023-04-29T19:18:25.091Z,9.60
2023-04-29T19:21:21.289Z,9.70
2023-04-29T19:24:11.121Z,9.80
2023-04-29T19:27:04.364Z,9.90
2023-04-29T19:29:55.072Z,10.10
2023-04-29T19:32:47.626Z,10.20
2023-04-29T19:35:37.928Z,10.30
2023-04-29T19:38:29.861Z,10.40
2023-04-29T19:41:22.647Z,10.40
2023-04-29T19:44:12.855Z,10.40
2023-04-29T19:47:02.895Z,10.40
2023-04-29T19:49:53.320Z,10.40
2023-04-29T19:52:43.036Z,10.50
2023-04-29T19:55:34.938Z,10.60
2023-04-29T19:58:24.948Z,10.70
2023-04-29T20:01:14.867Z,10.70
2023-04-29T20:04:04.794Z,10.80
2023-04-29T20:06:54.935Z,10.80
2023-04-29T20:09:46.418Z,10.90
2023-04-29T20:12:37.492Z,11.00
2023-04-29T20:15:27.548Z,11.00
2023-04-29T20:18:18.393Z,11.10
2023-04-29T20:21:08.589Z,11.20
2023-04-29T20:24:00.142Z,11.20
2023-04-29T20:26:49.848Z,11.30
2023-04-29T20:29:44.664Z,11.40
2023-04-29T20:32:36.245Z,11.50
2023-04-29T20:35:26.187Z,11.50
2023-04-29T20:38:15.871Z,11.50
2023-04-29T20:41:06.751Z,11.70
2023-04-29T20:43:56.328Z,11.80
2023-04-29T20:46:47.390Z,11.80
2023-04-29T20:49:37.227Z,11.90
2023-04-29T20:52:27.980Z,11.90
2023-04-29T20:55:18.086Z,12.00
2023-04-29T20:58:07.728Z,12.00
2023-04-29T21:00:57.200Z,12.00
2023-04-29T21:03:48.130Z,12.10
2023-04-29T21:06:38.277Z,12.10
2023-04-29T21:09:28.136Z,12.10
2023-04-29T21:12:17.671Z,12.20
2023-04-29T21:15:08.384Z,12.10
2023-04-29T21:17:58.156Z,12.10
2023-04-29T21:20:49.313Z,12.20
2023-04-29T21:23:38.915Z,12.20
2023-04-29T21:26:28.407Z,12.20
2023-04-29T21:29:17.932Z,12.20
2023-04-29T21:32:07.952Z,12.20
2023-04-29T21:34:58.014Z,12.20
2023-04-29T21:37:49.485Z,12.20
2023-04-29T21:40:42.998Z,12.20
2023-04-29T21:43:33.227Z,12.20
2023-04-29T21:46:23.183Z,12.20
2023-04-29T21:49:13.065Z,12.20
2023-04-29T21:52:03.630Z,12.20
2023-04-29T21:54:55.208Z,12.20
2023-04-29T21:57:45.744Z,12.10
2023-04-29T22:00:36.882Z,12.10
2023-04-29T22:03:26.594Z,12.00
2023-04-29T22:06:16.155Z,12.00
2023-04-29T22:09:06.896Z,11.90
2023-04-29T22:11:57.904Z,11.90
2023-04-29T22:14:47.968Z,11.90
2023-04-29T22:17:37.575Z,11.80
2023-04-29T22:20:27.863Z,11.90
2023-04-29T22:23:17.584Z,11.90
2023-04-29T22:26:07.263Z,11.80
2023-04-29T22:28:58.315Z,11.80
2023-04-29T22:31:47.955Z,11.80
2023-04-29T22:34:37.680Z,11.80
2023-04-29T22:37:27.628Z,11.80
2023-04-29T22:40:17.121Z,11.70
2023-04-29T22:43:06.612Z,11.70
2023-04-29T22:45:58.659Z,11.70
2023-04-29T22:49:44.613Z,11.70
2023-04-29T22:52:34.515Z,11.70
2023-04-29T22:55:24.132Z,11.60
2023-04-29T22:58:16.329Z,11.60
2023-04-29T23:01:09.336Z,11.60
2023-04-29T23:04:00.553Z,11.60
2023-04-29T23:06:50.035Z,11.60
2023-04-29T23:09:39.805Z,11.50
2023-04-29T23:12:30.765Z,11.40
2023-04-29T23:15:20.357Z,11.40
2023-04-29T23:18:11.585Z,11.40
2023-04-29T23:21:01.143Z,11.40
2023-04-29T23:23:50.666Z,11.30
2023-04-29T23:26:40.187Z,11.30
2023-04-29T23:29:30.045Z,11.30
2023-04-29T23:32:19.857Z,11.20
2023-04-29T23:35:13.586Z,11.20
2023-04-29T23:38:03.145Z,11.20
2023-04-29T23:40:52.745Z,11.10
2023-04-29T23:43:42.361Z,11.10
2023-04-29T23:46:32.149Z,11.10
2023-04-29T23:49:21.726Z,11.00
2023-04-29T23:52:12.817Z,10.90
2023-04-29T23:55:03.293Z,11.00
2023-04-29T23:57:53.099Z,11.00
